createdAt,value
2019-01-20T00:00:58.869Z,1011.36
2019-01-20T00:01:58.843Z,1011.35
2019-01-20T00:02:58.929Z,1011.39
2019-01-20T00:03:58.792Z,1011.37
2019-01-20T00:04:58.784Z,1011.38
2019-01-20T00:05:58.757Z,1011.35
2019-01-20T00:06:58.800Z,1011.36
2019-01-20T00:07:58.696Z,1011.36
2019-01-20T00:08:58.672Z,1011.37
2019-01-20T00:09:58.653Z,1011.39
2019-01-20T00:10:58.653Z,1011.38
2019-01-20T00:11:58.597Z,1011.39
2019-01-20T00:12:58.573Z,1011.40
2019-01-20T00:13:58.556Z,1011.39
2019-01-20T00:14:58.546Z,1011.40
2019-01-20T00:15:58.522Z,1011.42
2019-01-20T00:16:58.486Z,1011.40
2019-01-20T00:17:58.450Z,1011.39
2019-01-20T00:18:58.435Z,1011.38
2019-01-20T00:19:58.404Z,1011.36
2019-01-20T00:20:58.388Z,1011.36
2019-01-20T00:21:58.373Z,1011.38
2019-01-20T00:22:59.121Z,1011.34
2019-01-20T00:23:58.303Z,1011.34
2019-01-20T00:24:58.287Z,1011.36
2019-01-20T00:25:58.264Z,1011.36
2019-01-20T00:26:58.248Z,1011.36
2019-01-20T00:27:58.218Z,1011.34
2019-01-20T00:28:58.178Z,1011.37
2019-01-20T00:29:58.151Z,1011.35
2019-01-20T00:30:58.130Z,1011.37
2019-01-20T00:31:58.128Z,1011.34
2019-01-20T00:32:58.084Z,1011.32
2019-01-20T00:33:58.073Z,1011.34
2019-01-20T00:34:58.035Z,1011.31
2019-01-20T00:35:58.011Z,1011.32
2019-01-20T00:36:57.985Z,1011.31
2019-01-20T00:37:57.960Z,1011.30
2019-01-20T00:38:57.955Z,1011.32
2019-01-20T00:39:57.911Z,1011.30
2019-01-20T00:40:57.885Z,1011.26
2019-01-20T00:41:57.866Z,1011.24
2019-01-20T00:42:57.836Z,1011.25
2019-01-20T00:43:57.817Z,1011.21
2019-01-20T00:45:02.531Z,1011.25
2019-01-20T00:45:57.782Z,1011.21
2019-01-20T00:46:57.738Z,1011.21
2019-01-20T00:47:57.716Z,1011.24
2019-01-20T00:48:57.690Z,1011.20
2019-01-20T00:49:58.606Z,1011.17
2019-01-20T00:50:57.673Z,1011.18
2019-01-20T00:51:57.630Z,1011.18
2019-01-20T00:52:57.602Z,1011.19
2019-01-20T00:53:57.566Z,1011.20
2019-01-20T00:54:57.544Z,1011.17
2019-01-20T00:55:57.516Z,1011.20
2019-01-20T00:56:57.513Z,1011.22
2019-01-20T00:57:57.486Z,1011.24
2019-01-20T00:58:57.445Z,1011.23
2019-01-20T00:59:57.428Z,1011.24
2019-01-20T01:00:57.402Z,1011.19
2019-01-20T01:01:57.391Z,1011.23
2019-01-20T01:02:57.360Z,1011.22
2019-01-20T01:03:57.375Z,1011.18
2019-01-20T01:04:57.294Z,1011.20
2019-01-20T01:05:57.294Z,1011.19
2019-01-20T01:06:57.246Z,1011.19
2019-01-20T01:07:57.241Z,1011.22
2019-01-20T01:08:57.214Z,1011.23
2019-01-20T01:09:57.172Z,1011.23
2019-01-20T01:10:57.150Z,1011.19
2019-01-20T01:11:57.122Z,1011.24
2019-01-20T01:12:57.128Z,1011.24
2019-01-20T01:13:57.076Z,1011.25
2019-01-20T01:14:57.053Z,1011.24
2019-01-20T01:15:57.024Z,1011.26
2019-01-20T01:16:57.007Z,1011.25
2019-01-20T01:17:57.002Z,1011.30
2019-01-20T01:18:56.954Z,1011.32
2019-01-20T01:19:56.928Z,1011.30
2019-01-20T01:20:56.900Z,1011.33
2019-01-20T01:21:56.881Z,1011.34
2019-01-20T01:22:56.862Z,1011.35
2019-01-20T01:23:56.844Z,1011.32
2019-01-20T01:24:56.808Z,1011.35
2019-01-20T01:25:56.814Z,1011.33
2019-01-20T01:26:56.760Z,1011.35
2019-01-20T01:27:56.734Z,1011.36
2019-01-20T01:28:56.711Z,1011.37
2019-01-20T01:29:56.677Z,1011.36
2019-01-20T01:30:56.661Z,1011.34
2019-01-20T01:31:56.662Z,1011.34
2019-01-20T01:32:56.655Z,1011.36
2019-01-20T01:33:56.583Z,1011.33
2019-01-20T01:34:56.559Z,1011.34
2019-01-20T01:35:56.533Z,1011.34
2019-01-20T01:36:56.511Z,1011.35
2019-01-20T01:37:56.507Z,1011.33
2019-01-20T01:38:56.461Z,1011.38
2019-01-20T01:39:56.435Z,1011.36
2019-01-20T01:40:56.415Z,1011.37
2019-01-20T01:41:56.410Z,1011.38
2019-01-20T01:42:56.362Z,1011.40
2019-01-20T01:43:56.349Z,1011.38
2019-01-20T01:44:56.310Z,1011.38
2019-01-20T01:45:56.290Z,1011.38
2019-01-20T01:46:56.262Z,1011.41
2019-01-20T01:47:56.261Z,1011.43
2019-01-20T01:48:56.209Z,1011.42
2019-01-20T01:49:56.212Z,1011.40
2019-01-20T01:50:56.170Z,1011.42
2019-01-20T01:51:56.138Z,1011.37
2019-01-20T01:52:56.137Z,1011.41
2019-01-20T01:53:56.089Z,1011.38
2019-01-20T01:54:56.069Z,1011.38
2019-01-20T01:55:56.041Z,1011.38
2019-01-20T01:56:56.018Z,1011.39
2019-01-20T01:57:55.996Z,1011.41
2019-01-20T01:58:55.987Z,1011.42
2019-01-20T01:59:55.943Z,1011.46
2019-01-20T02:00:55.917Z,1011.41
2019-01-20T02:01:55.891Z,1011.42
2019-01-20T02:02:55.893Z,1011.46
2019-01-20T02:03:55.848Z,1011.41
2019-01-20T02:04:55.824Z,1011.41
2019-01-20T02:05:55.818Z,1011.39
2019-01-20T02:06:55.770Z,1011.42
2019-01-20T02:07:55.746Z,1011.39
2019-01-20T02:08:55.731Z,1011.42
2019-01-20T02:09:55.696Z,1011.43
2019-01-20T02:10:55.672Z,1011.46
2019-01-20T02:11:55.668Z,1011.43
2019-01-20T02:12:55.621Z,1011.43
2019-01-20T02:13:55.594Z,1011.41
2019-01-20T02:14:55.573Z,1011.46
2019-01-20T02:15:55.550Z,1011.45
2019-01-20T02:16:55.524Z,1011.43
2019-01-20T02:17:55.518Z,1011.44
2019-01-20T02:18:55.474Z,1011.50
2019-01-20T02:19:55.451Z,1011.47
2019-01-20T02:20:55.429Z,1011.50
2019-01-20T02:21:55.415Z,1011.45
2019-01-20T02:22:55.396Z,1011.48
2019-01-20T02:23:55.354Z,1011.46
2019-01-20T02:24:55.332Z,1011.48
2019-01-20T02:25:55.304Z,1011.50
2019-01-20T02:26:55.273Z,1011.46
2019-01-20T02:27:55.257Z,1011.48
2019-01-20T02:28:55.251Z,1011.51
2019-01-20T02:29:55.205Z,1011.49
2019-01-20T02:30:55.188Z,1011.50
2019-01-20T02:31:55.156Z,1011.51
2019-01-20T02:32:55.128Z,1011.52
2019-01-20T02:33:55.104Z,1011.52
2019-01-20T02:34:55.106Z,1011.52
2019-01-20T02:35:55.072Z,1011.54
2019-01-20T02:36:55.031Z,1011.51
2019-01-20T02:37:55.005Z,1011.55
2019-01-20T02:38:54.982Z,1011.55
2019-01-20T02:39:54.953Z,1011.54
2019-01-20T02:40:54.946Z,1011.53
2019-01-20T02:41:55.468Z,1011.54
2019-01-20T02:42:56.609Z,1011.54
2019-01-20T02:43:54.863Z,1011.52
2019-01-20T02:44:54.834Z,1011.53
2019-01-20T02:45:54.827Z,1011.52
2019-01-20T02:46:54.789Z,1011.53
2019-01-20T02:47:54.759Z,1011.54
2019-01-20T02:48:54.742Z,1011.54
2019-01-20T02:49:54.713Z,1011.53
2019-01-20T02:50:54.688Z,1011.50
2019-01-20T02:51:54.681Z,1011.51
2019-01-20T02:52:54.657Z,1011.54
2019-01-20T02:53:54.617Z,1011.50
2019-01-20T02:54:54.589Z,1011.50
2019-01-20T02:55:54.558Z,1011.49
2019-01-20T02:56:54.556Z,1011.47
2019-01-20T02:57:54.517Z,1011.51
2019-01-20T02:58:54.491Z,1011.52
2019-01-20T02:59:54.471Z,1011.48
2019-01-20T03:00:54.439Z,1011.45
2019-01-20T03:01:54.420Z,1011.41
2019-01-20T03:02:54.413Z,1011.44
2019-01-20T03:03:54.364Z,1011.42
2019-01-20T03:04:54.344Z,1011.42
2019-01-20T03:05:54.317Z,1011.41
2019-01-20T03:06:54.290Z,1011.40
2019-01-20T03:07:54.278Z,1011.39
2019-01-20T03:08:54.260Z,1011.37
2019-01-20T03:09:54.234Z,1011.41
2019-01-20T03:10:54.190Z,1011.39
2019-01-20T03:11:54.165Z,1011.41
2019-01-20T03:12:54.140Z,1011.45
2019-01-20T03:13:54.135Z,1011.43
2019-01-20T03:14:54.094Z,1011.38
2019-01-20T03:15:54.068Z,1011.41
2019-01-20T03:16:54.047Z,1011.36
2019-01-20T03:17:54.020Z,1011.41
2019-01-20T03:18:53.994Z,1011.37
2019-01-20T03:19:53.987Z,1011.36
2019-01-20T03:20:53.945Z,1011.33
2019-01-20T03:21:53.919Z,1011.33
2019-01-20T03:22:53.898Z,1011.35
2019-01-20T03:23:53.886Z,1011.35
2019-01-20T03:24:53.845Z,1011.31
2019-01-20T03:25:53.821Z,1011.39
2019-01-20T03:26:53.795Z,1011.39
2019-01-20T03:27:53.778Z,1011.39
2019-01-20T03:28:53.776Z,1011.38
2019-01-20T03:29:53.730Z,1011.39
2019-01-20T03:30:53.699Z,1011.41
2019-01-20T03:31:53.673Z,1011.39
2019-01-20T03:32:53.651Z,1011.40
2019-01-20T03:33:53.623Z,1011.40
2019-01-20T03:34:53.613Z,1011.38
2019-01-20T03:35:53.594Z,1011.39
2019-01-20T03:36:53.551Z,1011.39
2019-01-20T03:37:53.521Z,1011.39
2019-01-20T03:38:53.497Z,1011.41
2019-01-20T03:39:53.472Z,1011.39
2019-01-20T03:40:53.450Z,1011.36
2019-01-20T03:41:53.439Z,1011.36
2019-01-20T03:42:56.185Z,1011.36
2019-01-20T03:43:53.376Z,1011.35
2019-01-20T03:44:53.351Z,1011.35
2019-01-20T03:45:53.324Z,1011.33
2019-01-20T03:46:53.303Z,1011.33
2019-01-20T03:47:53.277Z,1011.33
2019-01-20T03:48:53.269Z,1011.34
2019-01-20T03:49:53.226Z,1011.31
2019-01-20T03:50:53.199Z,1011.32
2019-01-20T03:51:53.183Z,1011.31
2019-01-20T03:52:53.155Z,1011.33
2019-01-20T03:53:53.146Z,1011.36
2019-01-20T03:54:53.104Z,1011.29
2019-01-20T03:55:53.093Z,1011.34
2019-01-20T03:56:53.052Z,1011.34
2019-01-20T03:57:53.028Z,1011.37
2019-01-20T03:58:53.003Z,1011.37
2019-01-20T03:59:52.996Z,1011.39
2019-01-20T04:00:52.954Z,1011.38
2019-01-20T04:01:52.942Z,1011.39
2019-01-20T04:02:52.905Z,1011.40
2019-01-20T04:03:52.877Z,1011.41
2019-01-20T04:04:52.855Z,1011.37
2019-01-20T04:05:52.853Z,1011.39
2019-01-20T04:06:52.819Z,1011.39
2019-01-20T04:07:53.130Z,1011.37
2019-01-20T04:08:52.756Z,1011.40
2019-01-20T04:09:52.737Z,1011.38
2019-01-20T04:10:52.723Z,1011.38
2019-01-20T04:11:52.704Z,1011.38
2019-01-20T04:12:52.658Z,1011.36
2019-01-20T04:13:52.632Z,1011.38
2019-01-20T04:14:52.610Z,1011.38
2019-01-20T04:15:52.583Z,1011.33
2019-01-20T04:16:52.559Z,1011.36
2019-01-20T04:17:52.567Z,1011.35
2019-01-20T04:18:52.511Z,1011.34
2019-01-20T04:19:52.484Z,1011.35
2019-01-20T04:20:52.457Z,1011.34
2019-01-20T04:21:52.432Z,1011.35
2019-01-20T04:22:52.406Z,1011.34
2019-01-20T04:23:52.401Z,1011.37
2019-01-20T04:24:52.359Z,1011.35
2019-01-20T04:25:52.356Z,1011.39
2019-01-20T04:26:52.306Z,1011.41
2019-01-20T04:27:52.282Z,1011.45
2019-01-20T04:28:52.280Z,1011.38
2019-01-20T04:29:52.234Z,1011.41
2019-01-20T04:30:52.213Z,1011.45
2019-01-20T04:31:52.184Z,1011.40
2019-01-20T04:32:52.171Z,1011.38
2019-01-20T04:33:52.156Z,1011.41
2019-01-20T04:34:52.124Z,1011.43
2019-01-20T04:35:52.085Z,1011.38
2019-01-20T04:36:52.112Z,1011.37
2019-01-20T04:37:52.035Z,1011.43
2019-01-20T04:38:52.025Z,1011.36
2019-01-20T04:39:51.986Z,1011.36
2019-01-20T04:40:51.978Z,1011.41
2019-01-20T04:41:51.945Z,1011.40
2019-01-20T04:42:51.909Z,1011.37
2019-01-20T04:43:51.886Z,1011.40
2019-01-20T04:44:51.864Z,1011.37
2019-01-20T04:45:51.858Z,1011.38
2019-01-20T04:46:51.816Z,1011.40
2019-01-20T04:47:51.787Z,1011.37
2019-01-20T04:48:51.759Z,1011.40
2019-01-20T04:49:51.738Z,1011.40
2019-01-20T04:50:51.716Z,1011.38
2019-01-20T04:51:51.711Z,1011.40
2019-01-20T04:52:51.665Z,1011.37
2019-01-20T04:53:51.634Z,1011.40
2019-01-20T04:54:51.613Z,1011.39
2019-01-20T04:55:51.593Z,1011.39
2019-01-20T04:56:51.581Z,1011.35
2019-01-20T04:57:51.539Z,1011.36
2019-01-20T04:58:51.515Z,1011.40
2019-01-20T04:59:51.490Z,1011.41
2019-01-20T05:00:51.465Z,1011.41
2019-01-20T05:01:51.441Z,1011.38
2019-01-20T05:02:51.434Z,1011.39
2019-01-20T05:03:51.393Z,1011.37
2019-01-20T05:04:51.365Z,1011.38
2019-01-20T05:05:51.341Z,1011.41
2019-01-20T05:06:51.329Z,1011.39
2019-01-20T05:07:51.297Z,1011.41
2019-01-20T05:08:51.268Z,1011.40
2019-01-20T05:09:51.245Z,1011.40
2019-01-20T05:10:51.216Z,1011.42
2019-01-20T05:11:51.203Z,1011.43
2019-01-20T05:12:51.170Z,1011.45
2019-01-20T05:13:51.157Z,1011.44
2019-01-20T05:14:51.113Z,1011.47
2019-01-20T05:15:51.111Z,1011.47
2019-01-20T05:16:51.059Z,1011.49
2019-01-20T05:17:51.040Z,1011.52
2019-01-20T05:18:51.025Z,1011.49
2019-01-20T05:19:51.652Z,1011.51
2019-01-20T05:20:50.967Z,1011.51
2019-01-20T05:21:50.942Z,1011.52
2019-01-20T05:22:50.921Z,1011.54
2019-01-20T05:23:50.924Z,1011.53
2019-01-20T05:24:50.880Z,1011.54
2019-01-20T05:25:50.840Z,1011.58
2019-01-20T05:26:50.833Z,1011.59
2019-01-20T05:27:50.792Z,1011.55
2019-01-20T05:28:50.772Z,1011.60
2019-01-20T05:29:50.739Z,1011.61
2019-01-20T05:30:50.712Z,1011.60
2019-01-20T05:31:50.714Z,1011.62
2019-01-20T05:32:50.684Z,1011.61
2019-01-20T05:33:50.640Z,1011.62
2019-01-20T05:34:50.622Z,1011.63
2019-01-20T05:35:50.611Z,1011.60
2019-01-20T05:36:50.573Z,1011.62
2019-01-20T05:37:50.545Z,1011.67
2019-01-20T05:38:50.536Z,1011.67
2019-01-20T05:39:50.490Z,1011.66
2019-01-20T05:40:50.465Z,1011.66
2019-01-20T05:41:50.577Z,1011.67
2019-01-20T05:42:50.419Z,1011.66
2019-01-20T05:43:50.412Z,1011.69
2019-01-20T05:44:50.368Z,1011.74
2019-01-20T05:45:50.355Z,1011.74
2019-01-20T05:46:50.316Z,1011.78
2019-01-20T05:47:50.304Z,1011.78
2019-01-20T05:48:50.292Z,1011.79
2019-01-20T05:49:50.240Z,1011.81
2019-01-20T05:50:50.234Z,1011.77
2019-01-20T05:51:50.192Z,1011.75
2019-01-20T05:52:50.171Z,1011.81
2019-01-20T05:53:50.141Z,1011.77
2019-01-20T05:54:50.132Z,1011.79
2019-01-20T05:55:50.151Z,1011.79
2019-01-20T05:56:50.065Z,1011.80
2019-01-20T05:57:50.036Z,1011.84
2019-01-20T05:58:50.019Z,1011.81
2019-01-20T05:59:50.010Z,1011.86
2019-01-20T06:00:49.969Z,1011.87
2019-01-20T06:01:49.942Z,1011.90
2019-01-20T06:02:49.913Z,1011.93
2019-01-20T06:03:49.892Z,1011.96
2019-01-20T06:04:49.863Z,1011.94
2019-01-20T06:05:49.861Z,1011.91
2019-01-20T06:06:49.817Z,1011.90
2019-01-20T06:07:49.789Z,1011.92
2019-01-20T06:08:49.768Z,1011.91
2019-01-20T06:09:49.743Z,1011.93
2019-01-20T06:10:49.733Z,1011.92
2019-01-20T06:11:49.694Z,1011.95
2019-01-20T06:12:54.119Z,1011.92
2019-01-20T06:13:49.641Z,1011.93
2019-01-20T06:14:49.613Z,1011.95
2019-01-20T06:15:49.590Z,1011.98
2019-01-20T06:16:49.586Z,1011.96
2019-01-20T06:17:49.542Z,1011.95
2019-01-20T06:18:49.515Z,1011.99
2019-01-20T06:19:49.490Z,1011.97
2019-01-20T06:20:49.470Z,1011.99
2019-01-20T06:21:49.438Z,1011.97
2019-01-20T06:22:49.433Z,1011.98
2019-01-20T06:23:49.391Z,1012.04
2019-01-20T06:24:49.361Z,1011.98
2019-01-20T06:25:49.336Z,1011.99
2019-01-20T06:26:49.317Z,1012.00
2019-01-20T06:27:49.306Z,1012.03
2019-01-20T06:28:49.265Z,1012.04
2019-01-20T06:29:49.242Z,1012.04
2019-01-20T06:30:49.214Z,1012.05
2019-01-20T06:31:49.187Z,1012.07
2019-01-20T06:32:49.180Z,1012.10
2019-01-20T06:33:49.658Z,1012.09
2019-01-20T06:34:49.115Z,1012.10
2019-01-20T06:35:49.090Z,1012.07
2019-01-20T06:36:49.071Z,1012.08
2019-01-20T06:37:49.041Z,1012.07
2019-01-20T06:38:49.030Z,1012.08
2019-01-20T06:39:48.985Z,1012.06
2019-01-20T06:40:48.972Z,1012.07
2019-01-20T06:41:48.940Z,1012.08
2019-01-20T06:42:48.954Z,1012.07
2019-01-20T06:43:48.901Z,1012.08
2019-01-20T06:44:48.877Z,1012.08
2019-01-20T06:45:48.855Z,1012.07
2019-01-20T06:46:48.810Z,1012.11
2019-01-20T06:47:48.786Z,1012.09
2019-01-20T06:48:48.763Z,1012.16
2019-01-20T06:49:48.742Z,1012.14
2019-01-20T06:50:48.729Z,1012.13
2019-01-20T06:51:48.686Z,1012.14
2019-01-20T06:52:48.660Z,1012.16
2019-01-20T06:53:48.638Z,1012.15
2019-01-20T06:54:48.607Z,1012.18
2019-01-20T06:55:48.609Z,1012.14
2019-01-20T06:56:48.561Z,1012.14
2019-01-20T06:57:48.533Z,1012.17
2019-01-20T06:58:48.511Z,1012.21
2019-01-20T06:59:48.482Z,1012.18
2019-01-20T07:00:48.468Z,1012.21
2019-01-20T07:01:48.463Z,1012.17
2019-01-20T07:02:48.409Z,1012.22
2019-01-20T07:03:48.386Z,1012.24
2019-01-20T07:04:48.357Z,1012.25
2019-01-20T07:05:48.340Z,1012.23
2019-01-20T07:06:48.331Z,1012.25
2019-01-20T07:07:49.164Z,1012.31
2019-01-20T07:08:48.261Z,1012.32
2019-01-20T07:09:48.244Z,1012.31
2019-01-20T07:10:48.209Z,1012.35
2019-01-20T07:11:48.185Z,1012.37
2019-01-20T07:12:48.175Z,1012.38
2019-01-20T07:13:48.132Z,1012.42
2019-01-20T07:14:48.109Z,1012.42
2019-01-20T07:15:48.090Z,1012.44
2019-01-20T07:16:48.069Z,1012.43
2019-01-20T07:17:48.055Z,1012.48
2019-01-20T07:18:49.508Z,1012.51
2019-01-20T07:19:47.982Z,1012.51
2019-01-20T07:20:47.964Z,1012.51
2019-01-20T07:21:47.940Z,1012.53
2019-01-20T07:22:47.915Z,1012.50
2019-01-20T07:23:47.903Z,1012.51
2019-01-20T07:24:47.860Z,1012.52
2019-01-20T07:25:47.835Z,1012.54
2019-01-20T07:26:47.813Z,1012.58
2019-01-20T07:27:47.805Z,1012.58
2019-01-20T07:28:47.755Z,1012.59
2019-01-20T07:29:47.733Z,1012.62
2019-01-20T07:30:47.707Z,1012.64
2019-01-20T07:31:47.704Z,1012.64
2019-01-20T07:32:47.652Z,1012.69
2019-01-20T07:33:47.634Z,1012.67
2019-01-20T07:34:47.608Z,1012.71
2019-01-20T07:35:47.582Z,1012.72
2019-01-20T07:36:47.561Z,1012.69
2019-01-20T07:37:47.546Z,1012.70
2019-01-20T07:38:47.504Z,1012.67
2019-01-20T07:39:47.484Z,1012.68
2019-01-20T07:40:47.461Z,1012.71
2019-01-20T07:41:47.425Z,1012.74
2019-01-20T07:42:47.421Z,1012.75
2019-01-20T07:43:47.381Z,1012.69
2019-01-20T07:44:47.352Z,1012.72
2019-01-20T07:45:47.332Z,1012.71
2019-01-20T07:46:47.301Z,1012.71
2019-01-20T07:47:47.276Z,1012.72
2019-01-20T07:48:47.268Z,1012.77
2019-01-20T07:49:47.229Z,1012.79
2019-01-20T07:50:47.777Z,1012.83
2019-01-20T07:51:47.177Z,1012.77
2019-01-20T07:52:47.150Z,1012.81
2019-01-20T07:53:47.137Z,1012.82
2019-01-20T07:54:47.102Z,1012.83
2019-01-20T07:55:47.078Z,1012.89
2019-01-20T07:56:47.047Z,1012.88
2019-01-20T07:57:47.035Z,1012.89
2019-01-20T07:58:46.998Z,1012.90
2019-01-20T07:59:46.998Z,1012.91
2019-01-20T08:00:46.949Z,1012.89
2019-01-20T08:01:46.923Z,1012.89
2019-01-20T08:02:46.897Z,1012.93
2019-01-20T08:03:46.871Z,1012.95
2019-01-20T08:04:46.878Z,1012.96
2019-01-20T08:05:46.823Z,1012.99
2019-01-20T08:06:46.797Z,1012.96
2019-01-20T08:07:46.771Z,1012.97
2019-01-20T08:08:46.747Z,1012.95
2019-01-20T08:09:46.728Z,1012.99
2019-01-20T08:10:46.711Z,1012.98
2019-01-20T08:11:46.688Z,1013.04
2019-01-20T08:12:46.657Z,1013.05
2019-01-20T08:13:46.621Z,1013.06
2019-01-20T08:14:46.595Z,1013.05
2019-01-20T08:15:46.565Z,1013.04
2019-01-20T08:16:46.562Z,1013.06
2019-01-20T08:17:46.518Z,1013.06
2019-01-20T08:18:46.492Z,1013.05
2019-01-20T08:19:47.121Z,1013.00
2019-01-20T08:20:46.452Z,1013.06
2019-01-20T08:21:46.438Z,1013.11
2019-01-20T08:22:46.396Z,1013.11
2019-01-20T08:23:46.395Z,1013.14
2019-01-20T08:24:46.349Z,1013.18
2019-01-20T08:25:46.319Z,1013.17
2019-01-20T08:26:46.288Z,1013.21
2019-01-20T08:27:46.287Z,1013.22
2019-01-20T08:28:46.256Z,1013.25
2019-01-20T08:29:46.219Z,1013.23
2019-01-20T08:30:46.189Z,1013.26
2019-01-20T08:31:46.175Z,1013.30
2019-01-20T08:32:46.143Z,1013.29
2019-01-20T08:33:46.138Z,1013.31
2019-01-20T08:34:46.094Z,1013.37
2019-01-20T08:35:46.075Z,1013.36
2019-01-20T08:36:46.657Z,1013.39
2019-01-20T08:37:46.019Z,1013.40
2019-01-20T08:38:45.992Z,1013.41
2019-01-20T08:39:46.616Z,1013.37
2019-01-20T08:40:45.937Z,1013.38
2019-01-20T08:41:45.913Z,1013.38
2019-01-20T08:42:45.889Z,1013.40
2019-01-20T08:43:45.863Z,1013.40
2019-01-20T08:44:45.853Z,1013.42
2019-01-20T08:45:45.812Z,1013.43
2019-01-20T08:46:45.794Z,1013.46
2019-01-20T08:47:45.764Z,1013.47
2019-01-20T08:48:45.746Z,1013.50
2019-01-20T08:49:45.723Z,1013.49
2019-01-20T08:50:45.721Z,1013.48
2019-01-20T08:51:45.667Z,1013.55
2019-01-20T08:52:46.143Z,1013.53
2019-01-20T08:53:45.615Z,1013.55
2019-01-20T08:54:45.609Z,1013.54
2019-01-20T08:55:45.572Z,1013.54
2019-01-20T08:56:45.539Z,1013.54
2019-01-20T08:57:45.517Z,1013.54
2019-01-20T08:58:45.521Z,1013.56
2019-01-20T08:59:45.482Z,1013.57
2019-01-20T09:00:45.452Z,1013.55
2019-01-20T09:01:45.426Z,1013.57
2019-01-20T09:02:45.399Z,1013.55
2019-01-20T09:03:45.371Z,1013.59
2019-01-20T09:04:45.416Z,1013.58
2019-01-20T09:05:45.361Z,1013.62
2019-01-20T09:06:45.288Z,1013.64
2019-01-20T09:07:45.270Z,1013.61
2019-01-20T09:08:45.239Z,1013.62
2019-01-20T09:09:45.216Z,1013.68
2019-01-20T09:10:45.211Z,1013.68
2019-01-20T09:11:45.167Z,1013.70
2019-01-20T09:12:45.160Z,1013.69
2019-01-20T09:13:45.133Z,1013.72
2019-01-20T09:14:45.091Z,1013.78
2019-01-20T09:15:45.104Z,1013.78
2019-01-20T09:16:45.061Z,1013.81
2019-01-20T09:17:45.027Z,1013.83
2019-01-20T09:18:45.003Z,1013.79
2019-01-20T09:19:44.971Z,1013.85
2019-01-20T09:20:44.942Z,1013.82
2019-01-20T09:21:44.938Z,1013.84
2019-01-20T09:22:44.896Z,1013.83
2019-01-20T09:23:44.895Z,1013.86
2019-01-20T09:24:44.847Z,1013.83
2019-01-20T09:25:44.820Z,1013.83
2019-01-20T09:26:44.797Z,1013.87
2019-01-20T09:27:44.784Z,1013.85
2019-01-20T09:28:44.770Z,1013.89
2019-01-20T09:29:44.727Z,1013.92
2019-01-20T09:30:44.699Z,1013.96
2019-01-20T09:31:44.673Z,1013.92
2019-01-20T09:32:44.651Z,1013.94
2019-01-20T09:33:44.627Z,1013.98
2019-01-20T09:34:44.638Z,1014.00
2019-01-20T09:35:44.573Z,1014.01
2019-01-20T09:36:44.551Z,1014.06
2019-01-20T09:37:44.529Z,1014.10
2019-01-20T09:38:44.513Z,1014.05
2019-01-20T09:39:44.500Z,1014.07
2019-01-20T09:40:44.450Z,1014.11
2019-01-20T09:41:44.430Z,1014.13
2019-01-20T09:42:44.401Z,1014.09
2019-01-20T09:43:47.416Z,1014.09
2019-01-20T09:44:44.372Z,1014.11
2019-01-20T09:45:44.369Z,1014.12
2019-01-20T09:46:44.315Z,1014.10
2019-01-20T09:47:44.303Z,1014.12
2019-01-20T09:48:44.259Z,1014.08
2019-01-20T09:49:44.275Z,1014.11
2019-01-20T09:50:44.236Z,1014.12
2019-01-20T09:51:44.257Z,1014.11
2019-01-20T09:52:44.172Z,1014.12
2019-01-20T09:53:44.135Z,1014.11
2019-01-20T09:54:44.109Z,1014.12
2019-01-20T09:55:44.109Z,1014.17
2019-01-20T09:56:44.059Z,1014.16
2019-01-20T09:57:44.055Z,1014.16
2019-01-20T09:58:44.011Z,1014.16
2019-01-20T09:59:43.999Z,1014.19
2019-01-20T10:00:43.995Z,1014.24
2019-01-20T10:01:43.959Z,1014.22
2019-01-20T10:02:43.923Z,1014.24
2019-01-20T10:03:43.892Z,1014.24
2019-01-20T10:04:43.864Z,1014.24
2019-01-20T10:05:43.837Z,1014.23
2019-01-20T10:06:43.822Z,1014.24
2019-01-20T10:07:43.827Z,1014.27
2019-01-20T10:08:43.778Z,1014.28
2019-01-20T10:09:43.749Z,1014.32
2019-01-20T10:10:43.728Z,1014.28
2019-01-20T10:11:43.700Z,1014.26
2019-01-20T10:12:43.681Z,1014.29
2019-01-20T10:13:43.665Z,1014.29
2019-01-20T10:14:43.646Z,1014.31
2019-01-20T10:15:43.608Z,1014.33
2019-01-20T10:16:43.581Z,1014.34
2019-01-20T10:17:43.556Z,1014.33
2019-01-20T10:18:43.539Z,1014.32
2019-01-20T10:19:43.543Z,1014.31
2019-01-20T10:20:43.482Z,1014.35
2019-01-20T10:21:43.455Z,1014.33
2019-01-20T10:22:43.431Z,1014.39
2019-01-20T10:23:43.419Z,1014.39
2019-01-20T10:24:43.393Z,1014.40
2019-01-20T10:25:43.384Z,1014.43
2019-01-20T10:26:43.341Z,1014.42
2019-01-20T10:27:43.317Z,1014.40
2019-01-20T10:28:43.299Z,1014.42
2019-01-20T10:29:43.266Z,1014.41
2019-01-20T10:30:43.243Z,1014.42
2019-01-20T10:31:43.238Z,1014.43
2019-01-20T10:32:47.893Z,1014.40
2019-01-20T10:33:43.170Z,1014.41
2019-01-20T10:34:43.148Z,1014.47
2019-01-20T10:35:43.131Z,1014.46
2019-01-20T10:38:25.103Z,1014.49
2019-01-20T10:39:25.065Z,1014.46
2019-01-20T10:40:25.049Z,1014.49
2019-01-20T10:41:25.023Z,1014.48
2019-01-20T10:42:25.000Z,1014.49
2019-01-20T10:43:24.989Z,1014.50
2019-01-20T10:44:24.953Z,1014.47
2019-01-20T10:45:24.925Z,1014.47
2019-01-20T10:46:24.897Z,1014.50
2019-01-20T10:47:24.893Z,1014.50
2019-01-20T10:48:24.850Z,1014.50
2019-01-20T10:49:24.827Z,1014.47
2019-01-20T10:50:24.811Z,1014.45
2019-01-20T10:51:24.782Z,1014.47
2019-01-20T10:52:24.815Z,1014.46
2019-01-20T10:53:24.751Z,1014.48
2019-01-20T10:54:24.721Z,1014.49
2019-01-20T10:55:24.681Z,1014.45
2019-01-20T10:56:24.662Z,1014.46
2019-01-20T10:57:24.636Z,1014.44
2019-01-20T10:58:24.630Z,1014.45
2019-01-20T10:59:24.607Z,1014.43
2019-01-20T11:00:24.564Z,1014.48
2019-01-20T11:01:24.562Z,1014.40
2019-01-20T11:02:24.518Z,1014.40
2019-01-20T11:03:24.520Z,1014.40
2019-01-20T11:04:24.489Z,1014.45
2019-01-20T11:05:28.886Z,1014.41
2019-01-20T11:06:24.429Z,1014.43
2019-01-20T11:07:24.406Z,1014.42
2019-01-20T11:08:24.399Z,1014.37
2019-01-20T11:09:24.363Z,1014.39
2019-01-20T11:10:24.331Z,1014.39
2019-01-20T11:11:24.310Z,1014.45
2019-01-20T11:12:24.282Z,1014.47
2019-01-20T11:13:24.261Z,1014.45
2019-01-20T11:14:24.255Z,1014.49
2019-01-20T11:15:24.214Z,1014.47
2019-01-20T11:16:24.192Z,1014.49
2019-01-20T11:17:24.193Z,1014.52
2019-01-20T11:18:24.143Z,1014.51
2019-01-20T11:19:24.126Z,1014.56
2019-01-20T11:20:24.100Z,1014.51
2019-01-20T11:21:24.075Z,1014.55
2019-01-20T11:22:24.045Z,1014.53
2019-01-20T11:23:24.043Z,1014.60
2019-01-20T11:24:24.002Z,1014.55
2019-01-20T11:25:23.987Z,1014.56
2019-01-20T11:26:23.957Z,1014.60
2019-01-20T11:27:24.385Z,1014.58
2019-01-20T11:28:24.485Z,1014.57
2019-01-20T11:29:23.897Z,1014.57
2019-01-20T11:30:23.874Z,1014.62
2019-01-20T11:31:23.842Z,1014.58
2019-01-20T11:32:23.826Z,1014.60
2019-01-20T11:33:23.818Z,1014.59
2019-01-20T11:34:23.791Z,1014.61
2019-01-20T11:35:23.766Z,1014.56
2019-01-20T11:36:23.734Z,1014.58
2019-01-20T11:37:23.718Z,1014.56
2019-01-20T11:38:23.718Z,1014.58
2019-01-20T11:39:23.670Z,1014.58
2019-01-20T11:40:23.658Z,1014.57
2019-01-20T11:41:23.632Z,1014.59
2019-01-20T11:42:23.603Z,1014.60
2019-01-20T11:43:23.593Z,1014.59
2019-01-20T11:44:23.554Z,1014.59
2019-01-20T11:45:23.533Z,1014.56
2019-01-20T11:46:23.544Z,1014.59
2019-01-20T11:47:23.494Z,1014.57
2019-01-20T11:48:23.471Z,1014.62
2019-01-20T11:49:23.468Z,1014.57
2019-01-20T11:50:23.428Z,1014.59
2019-01-20T11:51:23.427Z,1014.57
2019-01-20T11:52:23.378Z,1014.56
2019-01-20T11:53:23.362Z,1014.52
2019-01-20T11:54:23.344Z,1014.52
2019-01-20T11:55:23.326Z,1014.51
2019-01-20T11:56:23.293Z,1014.46
2019-01-20T11:57:23.292Z,1014.48
2019-01-20T11:58:23.272Z,1014.44
2019-01-20T11:59:23.263Z,1014.50
2019-01-20T12:00:23.224Z,1014.48
2019-01-20T12:01:23.225Z,1014.48
2019-01-20T12:02:23.185Z,1014.48
2019-01-20T12:03:23.155Z,1014.52
2019-01-20T12:04:23.128Z,1014.53
2019-01-20T12:05:23.106Z,1014.49
2019-01-20T12:06:23.102Z,1014.53
2019-01-20T12:07:23.093Z,1014.51